createdAt,value
2023-05-09T00:00:46.910Z,10.20
2023-05-09T00:01:47.357Z,10.40
2023-05-09T00:02:46.927Z,10.50
2023-05-09T00:03:46.924Z,10.60
2023-05-09T00:04:47.159Z,10.10
2023-05-09T00:05:46.840Z,10.50
2023-05-09T00:06:46.834Z,10.30
2023-05-09T00:07:46.949Z,10.50
2023-05-09T00:08:46.849Z,10.70
2023-05-09T00:09:47.067Z,10.80
2023-05-09T00:10:47.071Z,10.90
2023-05-09T00:11:47.206Z,10.90
2023-05-09T00:12:46.984Z,10.90
2023-05-09T00:13:46.788Z,11.00
2023-05-09T00:14:47.319Z,10.80
2023-05-09T00:15:47.326Z,11.00
2023-05-09T00:16:47.457Z,10.60
2023-05-09T00:17:47.502Z,10.60
2023-05-09T00:18:46.924Z,11.50
2023-05-09T00:19:46.744Z,10.80
2023-05-09T00:20:46.730Z,10.60
2023-05-09T00:21:47.449Z,11.00
2023-05-09T00:22:46.740Z,10.90
2023-05-09T00:23:47.167Z,10.10
2023-05-09T00:24:46.762Z,10.70
2023-05-09T00:25:46.769Z,11.10
2023-05-09T00:26:46.687Z,10.40
2023-05-09T00:27:46.717Z,11.10
2023-05-09T00:28:46.685Z,10.70
2023-05-09T00:29:46.690Z,11.10
2023-05-09T00:30:46.700Z,10.90
2023-05-09T00:31:46.726Z,11.30
2023-05-09T00:32:46.736Z,11.00
2023-05-09T00:33:46.726Z,11.10
2023-05-09T00:34:46.630Z,11.30
2023-05-09T00:35:46.757Z,10.80
2023-05-09T00:36:46.761Z,11.10
2023-05-09T00:37:46.761Z,11.70
2023-05-09T00:38:46.764Z,11.10
2023-05-09T00:39:46.862Z,11.60
2023-05-09T00:40:46.771Z,11.40
2023-05-09T00:41:46.885Z,10.80
2023-05-09T00:42:46.889Z,11.10
2023-05-09T00:43:46.792Z,11.00
2023-05-09T00:44:46.687Z,11.30
2023-05-09T00:45:46.834Z,11.40
2023-05-09T00:46:47.013Z,11.20
2023-05-09T00:47:47.048Z,11.10
2023-05-09T00:48:46.632Z,11.60
2023-05-09T00:49:46.623Z,11.10
2023-05-09T00:50:47.053Z,11.20
2023-05-09T00:51:47.052Z,11.30
2023-05-09T00:52:47.058Z,11.50
2023-05-09T00:53:47.065Z,11.10
2023-05-09T00:54:46.659Z,10.60
2023-05-09T00:55:47.094Z,11.70
2023-05-09T00:56:46.695Z,11.10
2023-05-09T00:57:46.487Z,11.40
2023-05-09T00:58:46.889Z,11.10
2023-05-09T00:59:46.501Z,11.60
2023-05-09T01:00:46.508Z,11.40
2023-05-09T01:01:46.586Z,10.90
2023-05-09T01:02:46.482Z,11.30
2023-05-09T01:03:46.509Z,10.90
2023-05-09T01:04:46.422Z,11.20
2023-05-09T01:05:46.431Z,11.70
2023-05-09T01:06:46.441Z,11.00
2023-05-09T01:07:46.564Z,11.50
2023-05-09T01:08:46.561Z,11.50
2023-05-09T01:09:46.462Z,12.50
2023-05-09T01:10:46.588Z,11.90
2023-05-09T01:11:46.385Z,11.70
2023-05-09T01:12:46.596Z,12.50
2023-05-09T01:13:46.392Z,11.20
2023-05-09T01:14:46.493Z,11.50
2023-05-09T01:15:46.501Z,11.60
2023-05-09T01:16:46.435Z,11.90
2023-05-09T01:17:46.686Z,11.60
2023-05-09T01:18:46.645Z,12.50
2023-05-09T01:19:46.653Z,11.80
2023-05-09T01:20:46.658Z,12.00
2023-05-09T01:21:46.653Z,11.20
2023-05-09T01:22:46.700Z,11.80
2023-05-09T01:23:46.675Z,13.00
2023-05-09T01:24:46.298Z,12.00
2023-05-09T01:25:46.683Z,11.70
2023-05-09T01:26:46.708Z,11.70
2023-05-09T01:27:46.695Z,12.40
2023-05-09T01:28:46.288Z,12.10
2023-05-09T01:29:46.313Z,12.00
2023-05-09T01:30:46.335Z,12.50
2023-05-09T01:31:46.377Z,12.70
2023-05-09T01:32:46.362Z,13.00
2023-05-09T01:33:46.432Z,13.30
2023-05-09T01:34:46.547Z,12.90
2023-05-09T01:35:46.561Z,13.10
2023-05-09T01:36:46.548Z,13.10
2023-05-09T01:37:46.666Z,12.40
2023-05-09T01:38:46.792Z,12.80
2023-05-09T01:39:46.786Z,12.90
2023-05-09T01:40:46.394Z,12.30
2023-05-09T01:41:46.594Z,12.70
2023-05-09T01:42:46.212Z,13.50
2023-05-09T01:43:46.255Z,12.80
2023-05-09T01:44:46.414Z,12.90
2023-05-09T01:45:46.625Z,12.70
2023-05-09T01:46:46.895Z,12.30
2023-05-09T01:47:46.886Z,12.60
2023-05-09T01:48:46.126Z,13.60
2023-05-09T01:49:46.236Z,13.30
2023-05-09T01:50:46.862Z,13.80
2023-05-09T01:51:46.679Z,12.60
2023-05-09T01:52:46.873Z,12.80
2023-05-09T01:53:46.882Z,12.70
2023-05-09T01:54:46.531Z,12.10
2023-05-09T01:55:46.480Z,12.60
2023-05-09T01:56:46.079Z,13.80
2023-05-09T01:57:46.969Z,13.30
2023-05-09T01:58:46.062Z,12.70
2023-05-09T01:59:46.028Z,13.40
2023-05-09T02:00:46.209Z,13.90
2023-05-09T02:01:46.178Z,13.90
2023-05-09T02:02:46.336Z,12.60
2023-05-09T02:03:46.019Z,12.50
2023-05-09T02:04:46.146Z,12.70
2023-05-09T02:05:46.451Z,13.60
2023-05-09T02:06:46.173Z,13.60
2023-05-09T02:07:46.586Z,13.50
2023-05-09T02:08:46.586Z,14.20
2023-05-09T02:09:45.972Z,14.70
2023-05-09T02:10:46.821Z,14.80
2023-05-09T02:11:46.184Z,15.20
2023-05-09T02:12:46.835Z,14.30
2023-05-09T02:13:45.990Z,14.70
2023-05-09T02:14:45.998Z,14.40
2023-05-09T02:15:46.002Z,14.90
2023-05-09T02:16:47.000Z,14.40
2023-05-09T02:17:46.860Z,14.00
2023-05-09T02:18:46.637Z,14.70
2023-05-09T02:19:46.863Z,14.50
2023-05-09T02:20:46.846Z,13.70
2023-05-09T02:21:45.871Z,13.90
2023-05-09T02:22:45.867Z,13.90
2023-05-09T02:23:45.878Z,14.70
2023-05-09T02:24:46.683Z,14.10
2023-05-09T02:25:45.886Z,13.90
2023-05-09T02:26:45.903Z,14.30
2023-05-09T02:27:46.013Z,14.70
2023-05-09T02:28:45.912Z,13.80
2023-05-09T02:29:45.925Z,13.60
2023-05-09T02:30:45.823Z,14.00
2023-05-09T02:31:45.934Z,13.40
2023-05-09T02:32:45.956Z,14.60
2023-05-09T02:33:45.936Z,13.50
2023-05-09T02:34:45.934Z,13.00
2023-05-09T02:35:46.055Z,13.10
2023-05-09T02:36:45.954Z,13.20
2023-05-09T02:37:45.769Z,13.60
2023-05-09T02:38:45.759Z,13.50
2023-05-09T02:39:45.876Z,13.70
2023-05-09T02:40:46.004Z,13.60
2023-05-09T02:41:45.784Z,14.30
2023-05-09T02:42:45.990Z,13.60
2023-05-09T02:43:46.056Z,13.70
2023-05-09T02:44:45.809Z,14.10
2023-05-09T02:45:45.817Z,14.00
2023-05-09T02:46:46.030Z,13.90
2023-05-09T02:47:46.073Z,13.50
2023-05-09T02:48:46.043Z,13.20
2023-05-09T02:49:46.046Z,14.30
2023-05-09T02:50:46.054Z,13.60
2023-05-09T02:51:46.053Z,13.60
2023-05-09T02:52:45.668Z,13.90
2023-05-09T02:53:45.692Z,14.90
2023-05-09T02:54:45.710Z,14.90
2023-05-09T02:55:45.700Z,14.00
2023-05-09T02:56:45.739Z,13.70
2023-05-09T02:57:45.802Z,14.20
2023-05-09T02:58:45.804Z,14.50
2023-05-09T02:59:45.807Z,14.10
2023-05-09T03:00:45.944Z,13.80
2023-05-09T03:01:45.886Z,13.50
2023-05-09T03:02:46.195Z,13.20
2023-05-09T03:03:46.348Z,14.00
2023-05-09T03:04:45.737Z,14.00
2023-05-09T03:05:45.949Z,14.10
2023-05-09T03:06:45.756Z,14.50
2023-05-09T03:07:46.389Z,14.10
2023-05-09T03:08:45.579Z,13.70
2023-05-09T03:09:46.056Z,13.20
2023-05-09T03:10:46.028Z,13.50
2023-05-09T03:11:46.197Z,13.60
2023-05-09T03:12:46.456Z,13.80
2023-05-09T03:13:45.805Z,14.80
2023-05-09T03:14:45.602Z,14.70
2023-05-09T03:15:46.051Z,14.70
2023-05-09T03:16:46.292Z,14.60
2023-05-09T03:17:46.462Z,14.80
2023-05-09T03:18:45.628Z,14.80
2023-05-09T03:19:45.470Z,15.50
2023-05-09T03:20:46.420Z,14.60
2023-05-09T03:21:45.470Z,14.70
2023-05-09T03:22:45.506Z,14.00
2023-05-09T03:23:45.473Z,14.90
2023-05-09T03:24:45.578Z,14.20
2023-05-09T03:25:45.584Z,15.20
2023-05-09T03:26:45.700Z,14.10
2023-05-09T03:27:45.495Z,14.40
2023-05-09T03:28:45.805Z,14.70
2023-05-09T03:29:45.948Z,14.30
2023-05-09T03:30:45.924Z,14.60
2023-05-09T03:31:46.083Z,14.20
2023-05-09T03:32:45.582Z,14.70
2023-05-09T03:33:46.163Z,15.40
2023-05-09T03:34:45.360Z,16.20
2023-05-09T03:35:46.264Z,15.10
2023-05-09T03:36:45.351Z,14.90
2023-05-09T03:37:45.565Z,16.40
2023-05-09T03:38:45.772Z,16.50
2023-05-09T03:39:46.395Z,15.70
2023-05-09T03:40:45.788Z,15.90
2023-05-09T03:41:45.381Z,15.30
2023-05-09T03:42:45.831Z,15.80
2023-05-09T03:43:46.274Z,15.40
2023-05-09T03:44:46.175Z,15.20
2023-05-09T03:45:46.054Z,15.30
2023-05-09T03:46:46.084Z,15.20
2023-05-09T03:47:45.891Z,16.90
2023-05-09T03:48:45.845Z,17.90
2023-05-09T03:49:45.269Z,18.80
2023-05-09T03:50:45.272Z,18.10
2023-05-09T03:51:45.282Z,17.70
2023-05-09T03:52:45.295Z,18.10
2023-05-09T03:53:45.273Z,18.30
2023-05-09T03:54:45.265Z,17.00
2023-05-09T03:55:45.516Z,18.50
2023-05-09T03:56:46.684Z,16.80
2023-05-09T03:57:45.613Z,16.90
2023-05-09T03:58:45.509Z,16.80
2023-05-09T03:59:45.756Z,17.50
2023-05-09T04:00:45.730Z,18.90
2023-05-09T04:01:45.985Z,18.40
2023-05-09T04:02:45.994Z,19.10
2023-05-09T04:03:46.137Z,19.30
2023-05-09T04:04:45.144Z,18.80
2023-05-09T04:05:45.553Z,18.70
2023-05-09T04:06:45.149Z,19.10
2023-05-09T04:07:46.007Z,18.20
2023-05-09T04:08:45.786Z,18.70
2023-05-09T04:09:45.176Z,17.50
2023-05-09T04:10:45.982Z,17.70
2023-05-09T04:11:45.394Z,18.70
2023-05-09T04:12:45.615Z,20.00
2023-05-09T04:13:45.820Z,18.60
2023-05-09T04:14:48.811Z,19.10
2023-05-09T04:15:46.006Z,18.30
2023-05-09T04:16:46.007Z,18.70
2023-05-09T04:17:45.096Z,18.40
2023-05-09T04:18:45.032Z,18.00
2023-05-09T04:19:45.163Z,17.70
2023-05-09T04:20:45.158Z,18.10
2023-05-09T04:21:45.269Z,17.40
2023-05-09T04:22:46.940Z,18.00
2023-05-09T04:23:45.383Z,16.70
2023-05-09T04:24:45.389Z,18.00
2023-05-09T04:25:45.298Z,16.70
2023-05-09T04:26:45.503Z,17.00
2023-05-09T04:27:45.198Z,18.50
2023-05-09T04:28:45.618Z,16.90
2023-05-09T04:29:45.734Z,16.60
2023-05-09T04:30:45.810Z,16.90
2023-05-09T04:31:45.222Z,17.00
2023-05-09T04:32:44.965Z,16.70
2023-05-09T04:33:44.934Z,16.90
2023-05-09T04:34:44.946Z,16.10
2023-05-09T04:35:44.965Z,15.60
2023-05-09T04:36:44.961Z,15.80
2023-05-09T04:37:44.964Z,16.00
2023-05-09T04:38:44.969Z,15.70
2023-05-09T04:39:44.987Z,16.60
2023-05-09T04:40:44.992Z,16.50
2023-05-09T04:41:44.992Z,15.60
2023-05-09T04:42:45.006Z,16.10
2023-05-09T04:43:45.116Z,15.40
2023-05-09T04:44:45.123Z,15.50
2023-05-09T04:45:44.863Z,15.10
2023-05-09T04:46:44.886Z,15.50
2023-05-09T04:47:44.954Z,15.00
2023-05-09T04:48:44.849Z,15.30
2023-05-09T04:49:44.983Z,16.00
2023-05-09T04:50:44.975Z,15.10
2023-05-09T04:51:44.987Z,15.60
2023-05-09T04:52:45.100Z,14.90
2023-05-09T04:53:45.200Z,15.00
2023-05-09T04:54:45.201Z,15.20
2023-05-09T04:55:45.208Z,15.30
2023-05-09T04:56:45.264Z,15.90
2023-05-09T04:57:45.214Z,15.80
2023-05-09T04:58:45.216Z,15.10
2023-05-09T04:59:44.756Z,14.40
2023-05-09T05:00:44.919Z,15.50
2023-05-09T05:01:45.259Z,15.10
2023-05-09T05:02:45.229Z,14.60
2023-05-09T05:03:44.758Z,14.40
2023-05-09T05:04:46.285Z,14.80
2023-05-09T05:05:44.923Z,14.50
2023-05-09T05:06:44.698Z,14.30
2023-05-09T05:07:44.769Z,13.50
2023-05-09T05:08:45.389Z,13.50
2023-05-09T05:09:44.685Z,14.00
2023-05-09T05:10:44.892Z,13.30
2023-05-09T05:11:57.098Z,12.40
2023-05-09T05:12:45.473Z,13.00
2023-05-09T05:13:44.912Z,14.20
2023-05-09T05:14:45.603Z,13.30
2023-05-09T05:15:44.698Z,13.70
2023-05-09T05:16:44.741Z,13.70
2023-05-09T05:17:44.884Z,13.60
2023-05-09T05:18:44.661Z,12.60
2023-05-09T05:19:44.750Z,13.70
2023-05-09T05:20:44.615Z,13.20
2023-05-09T05:21:44.771Z,13.10
2023-05-09T05:22:44.695Z,12.90
2023-05-09T05:23:44.983Z,14.00
2023-05-09T05:24:45.099Z,13.70
2023-05-09T05:25:44.584Z,13.40
2023-05-09T05:26:44.820Z,13.00
2023-05-09T05:27:44.701Z,13.20
2023-05-09T05:28:44.612Z,13.10
2023-05-09T05:29:44.543Z,13.90
2023-05-09T05:30:45.132Z,13.50
2023-05-09T05:31:44.635Z,13.50
2023-05-09T05:32:44.798Z,13.40
2023-05-09T05:33:44.540Z,12.60
2023-05-09T05:36:10.702Z,12.50
2023-05-09T05:37:10.769Z,14.00
2023-05-09T05:38:10.472Z,12.90
2023-05-09T05:39:10.785Z,13.70
2023-05-09T05:40:10.810Z,13.90
2023-05-09T05:41:10.801Z,14.10
2023-05-09T05:42:10.807Z,12.40
2023-05-09T05:43:10.417Z,13.20
2023-05-09T05:44:10.731Z,12.70
2023-05-09T05:45:10.419Z,12.30
2023-05-09T05:46:10.454Z,11.60
2023-05-09T05:47:10.440Z,12.30
2023-05-09T05:48:10.623Z,11.90
2023-05-09T05:49:10.562Z,12.70
2023-05-09T05:50:10.354Z,11.60
2023-05-09T05:51:10.812Z,12.70
2023-05-09T05:52:10.776Z,12.10
2023-05-09T05:53:10.852Z,12.80
2023-05-09T05:54:10.977Z,12.60
2023-05-09T05:55:11.009Z,12.20
2023-05-09T05:56:10.816Z,11.50
2023-05-09T05:57:10.298Z,11.60
2023-05-09T05:58:10.315Z,13.10
2023-05-09T05:59:11.350Z,11.90
2023-05-09T06:00:11.047Z,11.80
2023-05-09T06:01:10.340Z,12.00
2023-05-09T06:02:10.438Z,11.50
2023-05-09T06:03:10.318Z,11.80
2023-05-09T06:04:10.344Z,12.20
2023-05-09T06:05:11.063Z,12.30
2023-05-09T06:06:10.262Z,12.30
2023-05-09T06:07:10.369Z,11.60
2023-05-09T06:08:10.380Z,12.40
2023-05-09T06:09:10.383Z,12.50
2023-05-09T06:10:10.206Z,12.50
2023-05-09T06:11:10.394Z,12.10
2023-05-09T06:12:10.205Z,12.00
2023-05-09T06:13:10.234Z,11.90
2023-05-09T06:14:10.217Z,11.70
2023-05-09T06:15:10.331Z,11.80
2023-05-09T06:17:10.518Z,11.60
2023-05-09T06:18:10.511Z,11.90
2023-05-09T06:19:10.450Z,11.20
2023-05-09T06:20:10.161Z,10.80
2023-05-09T06:21:10.470Z,11.70
2023-05-09T06:22:10.481Z,11.40
2023-05-09T06:23:10.579Z,11.50
2023-05-09T06:24:19.816Z,10.50
2023-05-09T06:25:10.717Z,11.10
2023-05-09T06:26:10.199Z,11.20
2023-05-09T06:27:10.203Z,11.20
2023-05-09T06:28:10.215Z,11.00
2023-05-09T06:29:10.139Z,11.40
2023-05-09T06:31:10.368Z,11.10
2023-05-09T06:32:10.349Z,10.70
2023-05-09T06:33:10.358Z,11.30
2023-05-09T06:34:10.149Z,10.70
2023-05-09T06:35:10.535Z,11.60
2023-05-09T06:36:10.067Z,11.00
2023-05-09T06:37:10.600Z,11.70
2023-05-09T06:38:10.603Z,11.80
2023-05-09T06:39:10.592Z,11.10
2023-05-09T06:40:10.729Z,11.70
2023-05-09T06:41:10.995Z,11.20
2023-05-09T06:42:10.020Z,11.30
2023-05-09T06:43:10.018Z,11.30
2023-05-09T06:44:10.119Z,11.30
2023-05-09T06:45:10.063Z,11.20
2023-05-09T06:46:10.063Z,11.20
2023-05-09T06:47:09.960Z,10.70
2023-05-09T06:48:10.019Z,11.50
2023-05-09T06:49:09.939Z,10.90
2023-05-09T06:50:10.072Z,11.00
2023-05-09T06:51:09.936Z,10.70
2023-05-09T06:52:10.079Z,10.60
2023-05-09T06:53:09.977Z,11.50
2023-05-09T06:54:09.908Z,11.40
2023-05-09T06:55:10.932Z,10.50
2023-05-09T06:56:10.415Z,10.50
2023-05-09T06:57:09.898Z,10.70
2023-05-09T06:58:09.891Z,11.10
2023-05-09T06:59:09.921Z,11.20
2023-05-09T07:00:10.237Z,11.10
2023-05-09T07:01:10.567Z,10.80
2023-05-09T07:02:10.455Z,11.10
2023-05-09T07:03:09.898Z,11.00
2023-05-09T07:04:10.853Z,10.60
2023-05-09T07:05:10.302Z,11.40
2023-05-09T07:06:10.276Z,10.80
2023-05-09T07:07:10.493Z,11.00
2023-05-09T07:08:10.083Z,11.40
2023-05-09T07:09:10.618Z,11.20
2023-05-09T07:10:11.992Z,10.50
2023-05-09T07:11:09.806Z,10.50
2023-05-09T07:12:09.916Z,10.90
2023-05-09T07:13:09.969Z,10.50
2023-05-09T07:14:09.821Z,10.40
2023-05-09T07:15:09.765Z,10.90
2023-05-09T07:16:09.837Z,10.20
2023-05-09T07:17:22.072Z,10.60
2023-05-09T07:18:09.840Z,10.40
2023-05-09T07:19:09.778Z,10.30
2023-05-09T07:20:09.788Z,10.30
2023-05-09T07:21:09.770Z,10.10
2023-05-09T07:22:09.812Z,10.50
2023-05-09T07:23:09.802Z,10.50
2023-05-09T07:24:09.715Z,9.80
2023-05-09T07:25:09.731Z,9.70
2023-05-09T07:26:09.722Z,9.70
2023-05-09T07:27:09.722Z,9.70
2023-05-09T07:28:09.720Z,9.60
2023-05-09T07:29:09.736Z,9.50
2023-05-09T07:30:09.740Z,9.40
2023-05-09T07:31:09.737Z,10.10
2023-05-09T07:32:09.794Z,9.50
2023-05-09T07:33:09.728Z,9.50
2023-05-09T07:34:09.653Z,9.60
2023-05-09T07:35:09.700Z,8.90
2023-05-09T07:36:09.882Z,9.20
2023-05-09T07:37:09.679Z,9.50
2023-05-09T07:38:09.890Z,10.30
2023-05-09T07:39:09.591Z,9.20
2023-05-09T07:40:09.605Z,9.40
2023-05-09T07:41:09.732Z,9.70
2023-05-09T07:42:09.736Z,9.20
2023-05-09T07:43:09.837Z,9.20
2023-05-09T07:44:09.745Z,8.70
2023-05-09T07:45:09.959Z,9.80
2023-05-09T07:46:09.993Z,8.70
2023-05-09T07:47:09.536Z,8.90
2023-05-09T07:48:09.685Z,9.00
2023-05-09T07:49:09.781Z,8.60
2023-05-09T07:50:09.769Z,9.20
2023-05-09T07:51:09.584Z,9.20
2023-05-09T07:52:10.089Z,8.60
2023-05-09T07:53:09.795Z,8.80
2023-05-09T07:54:09.588Z,8.70
2023-05-09T07:55:10.122Z,8.90
2023-05-09T07:56:09.806Z,9.10
2023-05-09T07:57:10.132Z,8.90
2023-05-09T07:58:10.133Z,9.00
2023-05-09T07:59:09.455Z,8.70
2023-05-09T08:00:09.727Z,8.60
2023-05-09T08:01:09.886Z,8.60
2023-05-09T08:02:10.192Z,9.10
2023-05-09T08:03:10.461Z,8.50
2023-05-09T08:04:09.996Z,8.30
2023-05-09T08:05:10.081Z,8.70
2023-05-09T08:06:09.880Z,8.90
2023-05-09T08:07:09.480Z,8.50
2023-05-09T08:08:09.488Z,9.10
2023-05-09T08:09:09.406Z,8.70
2023-05-09T08:10:09.370Z,8.90
2023-05-09T08:11:09.504Z,8.80
2023-05-09T08:12:09.517Z,9.00
2023-05-09T08:13:09.681Z,9.40
2023-05-09T08:14:09.425Z,8.50
2023-05-09T08:15:09.454Z,9.00
2023-05-09T08:16:09.826Z,8.80
2023-05-09T08:17:09.867Z,9.00
2023-05-09T08:18:09.972Z,8.80
2023-05-09T08:19:09.979Z,9.10
2023-05-09T08:20:09.369Z,8.60
2023-05-09T08:21:09.376Z,9.20
2023-05-09T08:22:09.388Z,8.50
2023-05-09T08:23:09.297Z,8.50
2023-05-09T08:24:09.301Z,8.60
2023-05-09T08:25:09.307Z,8.70
2023-05-09T08:26:09.406Z,8.50
2023-05-09T08:27:09.423Z,8.70
2023-05-09T08:28:09.449Z,9.10
2023-05-09T08:29:09.449Z,8.80
2023-05-09T08:30:09.371Z,8.80
2023-05-09T08:31:09.391Z,8.70
2023-05-09T08:32:09.574Z,8.70
2023-05-09T08:33:09.728Z,8.20
2023-05-09T08:34:09.258Z,9.10
2023-05-09T08:35:09.293Z,9.10
2023-05-09T08:36:09.198Z,9.20
2023-05-09T08:37:09.199Z,9.40
2023-05-09T08:38:09.258Z,8.90
2023-05-09T08:39:09.193Z,9.00
2023-05-09T08:40:09.419Z,9.90
2023-05-09T08:41:09.214Z,9.00
2023-05-09T08:42:09.340Z,9.40
2023-05-09T08:43:09.441Z,8.70
2023-05-09T08:44:09.231Z,8.60
2023-05-09T08:45:09.254Z,9.00
2023-05-09T08:46:09.168Z,8.40
2023-05-09T08:47:09.458Z,8.10
2023-05-09T08:48:09.179Z,8.40
2023-05-09T08:49:09.903Z,8.70
2023-05-09T08:50:09.074Z,8.80
2023-05-09T08:51:09.177Z,8.90
2023-05-09T08:52:09.181Z,8.90
2023-05-09T08:53:09.296Z,8.50
2023-05-09T08:54:09.501Z,8.80
2023-05-09T08:55:09.109Z,9.20
2023-05-09T08:56:09.222Z,9.20
2023-05-09T08:57:09.233Z,8.80
2023-05-09T08:58:10.469Z,8.80
2023-05-09T08:59:09.848Z,8.10
2023-05-09T09:00:09.866Z,8.40
2023-05-09T09:01:09.149Z,8.30
2023-05-09T09:02:10.102Z,8.40
2023-05-09T09:03:09.643Z,8.20
2023-05-09T09:04:09.282Z,8.20
2023-05-09T09:05:19.635Z,7.70
2023-05-09T09:06:08.994Z,7.90
2023-05-09T09:07:08.992Z,7.80
2023-05-09T09:08:09.100Z,7.90
2023-05-09T09:09:09.034Z,7.80
2023-05-09T09:10:09.000Z,7.50
2023-05-09T09:11:09.339Z,7.50
2023-05-09T09:12:09.232Z,6.90
2023-05-09T09:13:09.453Z,7.10
2023-05-09T09:14:08.928Z,6.90
2023-05-09T09:15:09.457Z,7.80
2023-05-09T09:16:08.965Z,7.20
2023-05-09T09:17:09.576Z,7.10
2023-05-09T09:18:11.776Z,7.20
2023-05-09T09:19:09.696Z,6.90
2023-05-09T09:20:09.833Z,6.70
2023-05-09T09:21:08.889Z,6.50
2023-05-09T09:22:08.898Z,6.70
2023-05-09T09:23:08.924Z,6.20
2023-05-09T09:24:08.988Z,6.50
2023-05-09T09:25:08.920Z,6.20
2023-05-09T09:26:08.918Z,6.30
2023-05-09T09:27:08.947Z,6.70
2023-05-09T09:28:09.030Z,6.40
2023-05-09T09:29:09.148Z,6.40
2023-05-09T09:30:08.854Z,6.40
2023-05-09T09:31:08.970Z,6.10
2023-05-09T09:32:08.955Z,6.70
2023-05-09T09:33:08.839Z,7.10
2023-05-09T09:34:08.796Z,6.80
2023-05-09T09:35:08.803Z,6.50
2023-05-09T09:36:08.801Z,6.60
2023-05-09T09:37:08.803Z,6.80
2023-05-09T09:38:08.793Z,7.00
2023-05-09T09:39:08.805Z,6.90
2023-05-09T09:40:08.819Z,6.80
2023-05-09T09:41:08.921Z,6.90
2023-05-09T09:42:08.925Z,6.40
2023-05-09T09:43:08.838Z,6.50
2023-05-09T09:44:09.013Z,6.60
2023-05-09T09:45:08.762Z,6.70
2023-05-09T09:46:08.786Z,6.70
2023-05-09T09:47:08.957Z,6.60
2023-05-09T09:48:08.732Z,6.70
2023-05-09T09:49:08.977Z,6.90
2023-05-09T09:50:08.790Z,6.70
2023-05-09T09:51:08.917Z,6.70
2023-05-09T09:52:08.707Z,6.40
2023-05-09T09:53:08.693Z,6.70
2023-05-09T09:54:08.800Z,7.10
2023-05-09T09:55:09.020Z,6.90
2023-05-09T09:56:09.022Z,6.90
2023-05-09T09:57:09.139Z,6.40
2023-05-09T09:58:08.932Z,6.50
2023-05-09T09:59:08.676Z,6.40
2023-05-09T10:00:09.218Z,6.50
2023-05-09T10:01:09.317Z,6.70
2023-05-09T10:02:08.991Z,6.50
2023-05-09T10:03:08.673Z,6.70
2023-05-09T10:04:08.780Z,6.40
2023-05-09T10:05:08.692Z,6.20
2023-05-09T10:06:08.718Z,6.70
2023-05-09T10:07:09.031Z,6.50
2023-05-09T10:08:08.590Z,6.40
2023-05-09T10:09:09.021Z,6.30
2023-05-09T10:10:09.028Z,6.40
2023-05-09T10:11:08.623Z,6.70
2023-05-09T10:12:08.564Z,6.00
2023-05-09T10:13:08.875Z,6.70
2023-05-09T10:14:09.259Z,6.60
2023-05-09T10:15:08.852Z,6.60
2023-05-09T10:16:09.000Z,6.40
2023-05-09T10:17:08.661Z,6.20
2023-05-09T10:18:08.645Z,6.40
2023-05-09T10:19:08.504Z,5.70
2023-05-09T10:20:08.478Z,5.80
2023-05-09T10:21:08.486Z,5.90
2023-05-09T10:22:08.499Z,6.30
2023-05-09T10:23:08.528Z,6.30
2023-05-09T10:24:08.605Z,6.50
2023-05-09T10:25:08.424Z,6.50
2023-05-09T10:26:08.435Z,6.50
2023-05-09T10:27:08.549Z,6.20
2023-05-09T10:28:08.437Z,6.30
2023-05-09T10:29:08.546Z,6.60
2023-05-09T10:30:08.707Z,6.40
2023-05-09T10:31:08.956Z,6.40
2023-05-09T10:32:08.362Z,6.50
2023-05-09T10:33:08.441Z,6.20
2023-05-09T10:34:08.384Z,6.30
2023-05-09T10:35:08.369Z,6.50
2023-05-09T10:36:08.587Z,6.40
2023-05-09T10:37:08.702Z,6.70
2023-05-09T10:38:08.727Z,6.20
2023-05-09T10:39:08.726Z,6.60
2023-05-09T10:40:08.524Z,6.20
2023-05-09T10:41:08.323Z,6.20
2023-05-09T10:42:08.728Z,6.70
2023-05-09T10:43:08.534Z,6.70
2023-05-09T10:44:08.847Z,6.40
2023-05-09T10:45:08.865Z,6.40
2023-05-09T10:46:08.334Z,6.50
2023-05-09T10:47:08.596Z,5.90
2023-05-09T10:48:09.059Z,6.40
2023-05-09T10:49:08.673Z,6.30
2023-05-09T10:50:08.264Z,6.50
2023-05-09T10:51:08.909Z,6.60
2023-05-09T10:52:08.841Z,6.00
2023-05-09T10:53:09.024Z,6.60
2023-05-09T10:54:08.913Z,6.60
2023-05-09T10:55:08.304Z,6.00
2023-05-09T10:56:08.211Z,6.30
2023-05-09T10:57:08.526Z,6.50
2023-05-09T10:58:08.232Z,6.50
2023-05-09T10:59:08.237Z,6.70
2023-05-09T11:00:08.240Z,6.70
2023-05-09T11:01:08.264Z,6.50
2023-05-09T11:02:08.166Z,6.70
2023-05-09T11:03:08.381Z,6.50
2023-05-09T11:04:08.505Z,6.30
2023-05-09T11:05:08.619Z,6.50
2023-05-09T11:06:08.172Z,6.40
2023-05-09T11:07:08.409Z,6.20
2023-05-09T11:08:08.501Z,6.30
2023-05-09T11:09:08.827Z,6.20
2023-05-09T11:10:08.234Z,6.30
2023-05-09T11:11:08.528Z,6.00
2023-05-09T11:12:08.630Z,6.10
2023-05-09T11:13:08.685Z,6.10
2023-05-09T11:14:08.060Z,6.30
2023-05-09T11:15:08.092Z,6.10
2023-05-09T11:16:08.058Z,6.10
2023-05-09T11:17:08.053Z,6.10
2023-05-09T11:18:08.467Z,5.90
2023-05-09T11:19:08.098Z,6.00
2023-05-09T11:20:08.100Z,5.80
2023-05-09T11:21:08.083Z,5.90
2023-05-09T11:22:08.086Z,6.00
2023-05-09T11:23:08.008Z,5.70
2023-05-09T11:24:07.998Z,6.30
2023-05-09T11:25:08.026Z,6.00
2023-05-09T11:26:08.048Z,5.30
2023-05-09T11:27:08.028Z,6.10
2023-05-09T11:28:08.038Z,5.70
2023-05-09T11:29:07.965Z,5.90
2023-05-09T11:30:07.964Z,5.80
2023-05-09T11:31:08.065Z,5.70
2023-05-09T11:32:08.149Z,5.70
2023-05-09T11:33:07.992Z,5.70
2023-05-09T11:35:34.170Z,5.10
2023-05-09T11:36:34.132Z,5.40
2023-05-09T11:37:34.435Z,6.10
2023-05-09T11:38:34.420Z,5.50
2023-05-09T11:39:34.125Z,5.50
2023-05-09T11:40:33.883Z,6.00
2023-05-09T11:41:33.839Z,5.90
2023-05-09T11:42:34.129Z,6.00
2023-05-09T11:43:34.148Z,5.80
2023-05-09T11:44:34.338Z,5.90
2023-05-09T11:45:34.561Z,5.90
2023-05-09T11:46:34.577Z,6.10
2023-05-09T11:47:34.033Z,5.60
2023-05-09T11:48:34.204Z,5.80
2023-05-09T11:49:34.591Z,5.80
2023-05-09T11:50:34.191Z,6.00
2023-05-09T11:51:33.799Z,5.30
2023-05-09T11:52:33.760Z,5.60
2023-05-09T11:53:33.795Z,5.40
2023-05-09T11:54:33.909Z,5.80
2023-05-09T11:55:33.985Z,5.60
2023-05-09T11:56:33.752Z,5.90
2023-05-09T11:57:33.917Z,6.00
2023-05-09T11:58:33.917Z,5.30
2023-05-09T11:59:33.739Z,5.80
2023-05-09T12:00:33.822Z,5.50
2023-05-09T12:01:33.699Z,5.30
2023-05-09T12:02:33.751Z,5.50
2023-05-09T12:03:33.751Z,5.80
2023-05-09T12:04:33.714Z,5.80
2023-05-09T12:05:33.712Z,5.50
2023-05-09T12:06:33.705Z,5.80
2023-05-09T12:07:33.698Z,5.80
2023-05-09T12:08:33.833Z,5.80
2023-05-09T12:09:33.801Z,5.60
2023-05-09T12:10:33.728Z,5.60
2023-05-09T12:11:33.616Z,5.30
2023-05-09T12:12:33.619Z,5.50
2023-05-09T12:13:33.635Z,5.40
2023-05-09T12:14:33.645Z,5.60
2023-05-09T12:15:33.659Z,5.60
2023-05-09T12:16:33.603Z,5.70
2023-05-09T12:17:33.688Z,5.50
2023-05-09T12:18:33.681Z,5.40
2023-05-09T12:19:33.541Z,5.40
2023-05-09T12:20:33.536Z,5.50
2023-05-09T12:21:33.602Z,5.30
2023-05-09T12:22:33.576Z,5.10
2023-05-09T12:23:33.572Z,5.40
2023-05-09T12:24:33.510Z,5.70
2023-05-09T12:25:33.512Z,5.70
2023-05-09T12:26:33.583Z,5.50
2023-05-09T12:27:33.648Z,5.70
2023-05-09T12:28:33.631Z,6.00
2023-05-09T12:29:33.645Z,6.00
2023-05-09T12:30:33.663Z,7.20
2023-05-09T12:31:33.723Z,7.20
2023-05-09T12:32:33.700Z,6.80
2023-05-09T12:33:33.699Z,7.00
2023-05-09T12:34:33.720Z,6.80
2023-05-09T12:35:33.720Z,7.30
2023-05-09T12:36:33.726Z,7.40
2023-05-09T12:37:33.562Z,7.70
2023-05-09T12:38:34.925Z,7.10
2023-05-09T12:39:33.757Z,7.60
2023-05-09T12:40:33.771Z,8.00
2023-05-09T12:41:41.549Z,7.60
2023-05-09T12:42:33.813Z,8.20
2023-05-09T12:43:33.809Z,8.60
2023-05-09T12:44:33.831Z,8.00
2023-05-09T12:45:33.535Z,8.10
2023-05-09T12:46:35.694Z,8.40
2023-05-09T12:47:33.677Z,8.20
2023-05-09T12:48:33.649Z,8.20
2023-05-09T12:49:33.454Z,7.50
2023-05-09T12:50:33.507Z,7.50
2023-05-09T12:51:33.376Z,7.90
2023-05-09T12:52:33.310Z,7.40
2023-05-09T12:53:33.308Z,6.70
2023-05-09T12:54:33.311Z,7.40
2023-05-09T12:55:33.348Z,7.00
2023-05-09T12:56:33.282Z,6.90
2023-05-09T12:57:33.415Z,6.80
2023-05-09T12:58:33.678Z,7.10
2023-05-09T12:59:33.443Z,7.30
2023-05-09T13:00:33.291Z,6.20
2023-05-09T13:01:33.518Z,7.10
2023-05-09T13:02:33.334Z,7.10
2023-05-09T13:03:33.489Z,6.70
2023-05-09T13:04:33.512Z,6.90
2023-05-09T13:05:33.678Z,6.80
2023-05-09T13:06:33.690Z,6.90
2023-05-09T13:07:33.252Z,7.30
2023-05-09T13:08:33.224Z,7.00